Terminal Aerodrome Forecast
Issued by NWS

Home | Current Version | Previous Version | Graphics & Text | Print | Product List | Glossary On
Versions: 1 2 3 4 5 6 7 8 9 10 11 12 13 14 15 16 17 18 19 20 21
390
FTUS43 KBIS 250120 AAA
TAFJMS
TAF AMD
KJMS 250120Z 2501/2524 09005KT P6SM FEW120 SCT250
     FM250900 08006KT P6SM VCTS SCT080CB BKN120
     FM251200 10006KT P6SM -SHRA VCTS SCT050 OVC080CB
     FM251900 09011KT P6SM BKN045
      AMD NOT SKED=

USA.gov is the U.S. government's official web portal to all federal, state and local government web resources and services.